createdAt,value
2023-08-11T00:01:12.084Z,53.27
2023-08-11T00:03:39.115Z,53.46
2023-08-11T00:06:06.020Z,53.35
2023-08-11T00:08:32.913Z,53.71
2023-08-11T00:10:59.869Z,53.43
2023-08-11T00:13:26.854Z,54.32
2023-08-11T00:15:53.746Z,54.92
2023-08-11T00:18:20.772Z,55.13
2023-08-11T00:20:47.661Z,54.39
2023-08-11T00:23:14.538Z,54.15
2023-08-11T00:25:41.431Z,54.17
2023-08-11T00:28:08.454Z,54.06
2023-08-11T00:30:35.331Z,55.12
2023-08-11T00:33:02.146Z,55.79
2023-08-11T00:35:29.051Z,55.24
2023-08-11T00:37:56.037Z,54.77
2023-08-11T00:40:22.980Z,54.38
2023-08-11T00:42:49.970Z,53.83
2023-08-11T00:45:16.840Z,53.98
2023-08-11T00:47:43.942Z,53.92
2023-08-11T00:50:10.882Z,55.91
2023-08-11T00:52:37.700Z,57.16
2023-08-11T00:55:04.550Z,56.99
2023-08-11T00:57:31.485Z,56.68
2023-08-11T00:59:58.552Z,55.65
2023-08-11T01:02:28.464Z,54.99
2023-08-11T01:04:55.360Z,54.29
2023-08-11T01:07:22.202Z,53.95
2023-08-11T01:09:49.268Z,54.20
2023-08-11T01:12:16.309Z,54.49
2023-08-11T01:14:43.253Z,55.69
2023-08-11T01:17:10.564Z,55.66
2023-08-11T01:19:37.867Z,55.40
2023-08-11T01:22:04.737Z,55.12
2023-08-11T01:24:31.852Z,55.19
2023-08-11T01:26:58.794Z,56.00
2023-08-11T01:29:25.666Z,56.50
2023-08-11T01:31:52.691Z,55.81
2023-08-11T01:34:19.675Z,55.71
2023-08-11T01:36:46.655Z,56.89
2023-08-11T01:39:13.625Z,56.65
2023-08-11T01:41:40.597Z,56.99
2023-08-11T01:44:07.558Z,55.56
2023-08-11T01:46:34.616Z,56.52
2023-08-11T01:49:01.565Z,56.28
2023-08-11T01:51:28.692Z,55.86
2023-08-11T01:53:55.549Z,55.34
2023-08-11T01:56:22.651Z,56.69
2023-08-11T01:58:49.595Z,55.70
2023-08-11T02:01:16.578Z,55.37
2023-08-11T02:03:43.617Z,56.18
2023-08-11T02:06:10.728Z,55.69
2023-08-11T02:08:37.638Z,55.65
2023-08-11T02:11:04.540Z,54.76
2023-08-11T02:13:31.408Z,54.23
2023-08-11T02:15:58.363Z,54.13
2023-08-11T02:18:25.182Z,54.28
2023-08-11T02:20:52.017Z,55.03
2023-08-11T02:23:19.003Z,55.52
2023-08-11T02:25:45.862Z,55.67
2023-08-11T02:28:12.726Z,55.09
2023-08-11T02:30:39.616Z,55.56
2023-08-11T02:33:06.624Z,55.99
2023-08-11T02:35:33.596Z,56.40
2023-08-11T02:38:00.580Z,55.55
2023-08-11T02:40:27.494Z,55.63
2023-08-11T02:42:54.297Z,55.52
2023-08-11T02:45:21.188Z,55.71
2023-08-11T02:47:48.203Z,55.44
2023-08-11T02:50:18.392Z,55.69
2023-08-11T02:52:45.327Z,56.09
2023-08-11T02:55:12.180Z,55.84
2023-08-11T02:57:38.981Z,55.65
2023-08-11T03:00:05.821Z,55.38
2023-08-11T03:02:32.738Z,55.90
2023-08-11T03:04:59.646Z,56.04
2023-08-11T03:07:26.543Z,56.48
2023-08-11T03:09:53.612Z,57.29
2023-08-11T03:12:20.537Z,57.73
2023-08-11T03:14:47.437Z,58.10
2023-08-11T03:17:14.476Z,57.95
2023-08-11T03:19:41.469Z,58.14
2023-08-11T03:22:08.636Z,57.96
2023-08-11T03:24:35.634Z,57.24
2023-08-11T03:27:02.496Z,57.88
2023-08-11T03:29:29.544Z,57.19
2023-08-11T03:31:56.521Z,57.35
2023-08-11T03:34:23.436Z,57.25
2023-08-11T03:36:50.281Z,57.07
2023-08-11T03:39:17.065Z,56.60
2023-08-11T03:41:44.152Z,55.87
2023-08-11T03:44:11.062Z,56.17
2023-08-11T03:46:37.953Z,56.59
2023-08-11T03:49:04.811Z,56.92
2023-08-11T03:51:31.786Z,57.61
2023-08-11T03:54:01.018Z,57.88
2023-08-11T03:56:28.894Z,57.61
2023-08-11T03:58:55.716Z,56.59
2023-08-11T04:01:22.879Z,56.57
2023-08-11T04:03:49.892Z,56.75
2023-08-11T04:06:16.852Z,56.41
2023-08-11T04:08:43.732Z,55.98
2023-08-11T04:11:10.644Z,55.49
2023-08-11T04:13:37.530Z,55.36
2023-08-11T04:16:04.637Z,55.03
2023-08-11T04:18:31.575Z,55.25
2023-08-11T04:20:58.589Z,54.88
2023-08-11T04:23:25.389Z,54.95
2023-08-11T04:25:52.410Z,54.69
2023-08-11T04:28:19.445Z,54.61
2023-08-11T04:30:46.274Z,54.42
2023-08-11T04:33:13.391Z,54.80
2023-08-11T04:35:40.589Z,54.76
2023-08-11T04:38:07.513Z,54.33
2023-08-11T04:40:34.353Z,54.46
2023-08-11T04:43:01.277Z,54.39
2023-08-11T04:45:28.263Z,54.46
2023-08-11T04:47:55.171Z,54.45
2023-08-11T04:50:22.114Z,55.92
2023-08-11T04:52:48.957Z,55.72
2023-08-11T04:55:15.812Z,55.13
2023-08-11T04:57:42.803Z,56.20
2023-08-11T05:00:09.709Z,56.38
2023-08-11T05:02:36.697Z,55.97
2023-08-11T05:05:03.675Z,56.66
2023-08-11T05:07:30.573Z,56.55
2023-08-11T05:10:00.502Z,56.60
2023-08-11T05:12:30.520Z,57.02
2023-08-11T05:14:57.413Z,57.62
2023-08-11T05:17:24.442Z,57.55
2023-08-11T05:19:51.402Z,56.95
2023-08-11T05:22:18.256Z,56.88
2023-08-11T05:24:45.078Z,56.10
2023-08-11T05:27:11.986Z,56.97
2023-08-11T05:29:38.976Z,54.61
2023-08-11T05:32:15.004Z,54.64
2023-08-11T05:34:41.898Z,55.46
2023-08-11T05:37:09.317Z,54.99
2023-08-11T07:34:56.683Z,59.71
2023-08-11T07:37:23.553Z,59.40
2023-08-11T07:39:59.464Z,59.41
2023-08-11T07:42:26.356Z,58.96
2023-08-11T07:44:53.227Z,59.18
2023-08-11T07:47:21.607Z,58.86
2023-08-11T07:49:48.497Z,59.38
2023-08-11T07:52:15.350Z,59.06
2023-08-11T07:54:42.296Z,59.66
2023-08-11T07:57:09.418Z,59.76
2023-08-11T07:59:36.513Z,59.49
2023-08-11T08:02:03.440Z,59.95
2023-08-11T08:04:30.549Z,60.13
2023-08-11T08:06:57.441Z,60.82
2023-08-11T08:09:24.231Z,60.90
2023-08-11T08:11:51.035Z,60.77
2023-08-11T08:14:17.885Z,61.89
2023-08-11T08:16:44.791Z,62.24
2023-08-11T08:19:11.640Z,61.84
2023-08-11T08:21:38.471Z,61.32
2023-08-11T08:24:05.315Z,61.49
2023-08-11T08:26:32.177Z,61.41
2023-08-11T08:28:59.054Z,61.19
2023-08-11T08:31:25.887Z,61.27
2023-08-11T08:33:52.827Z,60.60
2023-08-11T08:36:19.730Z,60.62
2023-08-11T08:38:46.582Z,60.60
2023-08-11T08:41:13.430Z,60.46
2023-08-11T08:43:40.317Z,60.36
2023-08-11T08:46:07.213Z,60.35
2023-08-11T08:48:34.119Z,59.99
2023-08-11T08:51:00.996Z,59.97
2023-08-11T08:53:27.936Z,59.89
2023-08-11T08:55:54.739Z,60.13
2023-08-11T08:58:21.562Z,60.37
2023-08-11T09:00:48.390Z,60.10
2023-08-11T09:03:15.633Z,60.02
2023-08-11T09:05:42.781Z,60.28
2023-08-11T09:08:09.624Z,59.76
2023-08-11T09:10:36.441Z,59.75
2023-08-11T09:13:03.311Z,60.15
2023-08-11T09:15:30.200Z,60.00
2023-08-11T09:17:57.092Z,60.35
2023-08-11T09:20:24.118Z,59.77
2023-08-11T09:22:51.020Z,59.71
2023-08-11T09:25:17.915Z,59.78
2023-08-11T09:27:44.736Z,59.25
2023-08-11T09:30:11.587Z,58.22
2023-08-11T09:32:38.511Z,58.07
2023-08-11T09:35:05.412Z,58.60
2023-08-11T09:37:32.307Z,58.01
2023-08-11T09:39:59.197Z,57.23
2023-08-11T09:42:26.056Z,57.62
2023-08-11T09:44:52.897Z,57.72
2023-08-11T09:47:22.794Z,57.25
2023-08-11T09:49:50.247Z,57.39
2023-08-11T09:52:17.049Z,55.40
2023-08-11T09:54:43.860Z,57.15
2023-08-11T09:57:10.763Z,58.20
2023-08-11T09:59:37.608Z,58.29
2023-08-11T10:02:04.498Z,58.12
2023-08-11T10:04:31.386Z,57.75
2023-08-11T10:06:58.210Z,57.35
2023-08-11T10:09:25.064Z,57.21
2023-08-11T10:11:51.918Z,57.56
2023-08-11T10:14:18.770Z,56.93
2023-08-11T10:16:45.612Z,56.66
2023-08-11T10:19:12.426Z,56.88
2023-08-11T10:21:39.288Z,56.97
2023-08-11T10:24:06.106Z,55.97
2023-08-11T10:26:35.994Z,57.08
2023-08-11T10:29:02.825Z,56.95
2023-08-11T10:31:29.711Z,57.14
2023-08-11T10:33:56.564Z,56.96
2023-08-11T10:36:26.410Z,57.16
2023-08-11T10:38:53.207Z,56.56
2023-08-11T10:41:20.014Z,56.90
2023-08-11T10:43:46.882Z,56.37
2023-08-11T10:46:13.879Z,56.82
2023-08-11T10:48:40.708Z,56.76
2023-08-11T10:51:07.536Z,56.57
2023-08-11T10:53:34.468Z,56.85
2023-08-11T10:56:01.455Z,56.57
2023-08-11T10:58:28.399Z,56.36
2023-08-11T11:00:55.228Z,56.06
2023-08-11T11:03:22.070Z,55.71
2023-08-11T11:05:48.895Z,55.64
2023-08-11T11:08:15.692Z,56.24
2023-08-11T11:10:50.065Z,55.31
2023-08-11T11:13:17.831Z,55.94
2023-08-11T11:15:44.719Z,55.83
2023-08-11T11:18:11.637Z,55.58
2023-08-11T11:20:38.489Z,55.12
2023-08-11T11:23:05.392Z,55.51
2023-08-11T11:25:32.296Z,55.72
2023-08-11T11:27:59.215Z,56.13
2023-08-11T11:30:26.099Z,56.42
2023-08-11T11:32:52.957Z,56.32
2023-08-11T11:35:19.819Z,55.14
2023-08-11T11:37:46.692Z,54.52
2023-08-11T11:40:13.605Z,55.12
2023-08-11T11:42:40.434Z,55.79
2023-08-11T11:45:07.277Z,56.12
2023-08-11T11:47:34.254Z,55.89
2023-08-11T11:50:01.129Z,56.62
2023-08-11T11:52:27.999Z,56.17
2023-08-11T11:54:54.893Z,54.86
2023-08-11T11:57:21.907Z,55.61
2023-08-11T11:59:48.765Z,55.16
2023-08-11T12:02:19.682Z,56.21
2023-08-11T12:04:47.694Z,56.22
2023-08-11T12:07:14.602Z,55.67
2023-08-11T12:09:41.583Z,54.61
2023-08-11T12:12:08.642Z,55.47
2023-08-11T12:14:35.754Z,54.82
2023-08-11T12:17:02.638Z,54.57
2023-08-11T12:19:29.542Z,55.42
2023-08-11T12:21:56.392Z,54.59
2023-08-11T12:24:23.294Z,54.62
2023-08-11T12:26:50.121Z,53.86
2023-08-11T12:29:17.018Z,54.50
2023-08-11T12:31:46.893Z,54.22
2023-08-11T12:34:13.730Z,54.29
2023-08-11T12:36:40.640Z,55.17
2023-08-11T12:39:07.495Z,55.25
2023-08-11T12:41:34.468Z,55.64
2023-08-11T12:44:01.381Z,56.34
2023-08-11T12:46:28.241Z,55.73
2023-08-11T12:48:55.079Z,55.87
2023-08-11T12:51:21.976Z,55.39
2023-08-11T12:53:48.838Z,54.98
2023-08-11T12:56:15.647Z,55.83
2023-08-11T12:58:45.453Z,55.79
2023-08-11T13:01:13.249Z,55.81
2023-08-11T13:03:41.504Z,54.48
2023-08-11T13:06:08.412Z,55.26
2023-08-11T13:08:35.329Z,54.49
2023-08-11T13:11:02.293Z,54.41
2023-08-11T13:13:29.082Z,54.18
2023-08-11T13:15:55.985Z,55.07
2023-08-11T13:18:22.779Z,55.02
2023-08-11T13:20:49.614Z,55.06
2023-08-11T13:23:16.460Z,55.40
2023-08-11T13:25:43.302Z,54.62
2023-08-11T13:28:10.129Z,55.15
2023-08-11T13:30:42.358Z,54.54
2023-08-11T13:33:10.336Z,53.78
2023-08-11T13:35:37.313Z,54.46
2023-08-11T13:38:04.165Z,54.91
2023-08-11T13:40:31.017Z,54.29
2023-08-11T13:42:57.903Z,53.77
2023-08-11T13:45:24.828Z,54.18
2023-08-11T13:47:51.763Z,54.85
2023-08-11T13:50:18.728Z,54.72
2023-08-11T13:52:45.538Z,55.81
2023-08-11T13:55:12.372Z,55.32
2023-08-11T13:57:39.277Z,55.43
2023-08-11T14:00:06.069Z,56.25
2023-08-11T14:02:33.055Z,55.05
2023-08-11T14:05:02.951Z,55.24
2023-08-11T14:07:32.495Z,56.25
2023-08-11T14:10:01.394Z,56.39
2023-08-11T14:12:28.302Z,56.27
2023-08-11T14:14:55.204Z,56.49
2023-08-11T14:17:22.073Z,54.73
2023-08-11T14:19:48.976Z,54.04
2023-08-11T14:22:15.852Z,55.31
2023-08-11T14:24:42.683Z,55.57
2023-08-11T14:27:09.573Z,54.87
2023-08-11T14:29:36.490Z,54.44
2023-08-11T14:32:18.316Z,54.11
2023-08-11T14:34:50.175Z,54.61
2023-08-11T14:37:17.822Z,55.07
2023-08-11T14:39:44.998Z,55.49
2023-08-11T14:42:12.124Z,55.59
2023-08-11T14:44:39.155Z,54.86
2023-08-11T14:47:05.991Z,54.25
2023-08-11T14:49:32.951Z,54.65
2023-08-11T14:51:59.867Z,55.20
2023-08-11T14:54:27.900Z,55.26
2023-08-11T14:56:54.941Z,54.85
2023-08-11T14:59:21.786Z,54.61
2023-08-11T15:01:48.604Z,54.44
2023-08-11T15:04:15.500Z,55.05
2023-08-11T15:06:42.374Z,54.65
2023-08-11T15:09:09.205Z,54.89
2023-08-11T15:11:36.158Z,54.78
2023-08-11T15:14:03.054Z,54.64
2023-08-11T15:16:29.955Z,54.65
2023-08-11T15:18:56.824Z,55.11
2023-08-11T15:21:23.706Z,54.91
2023-08-11T15:23:50.630Z,55.32
2023-08-11T15:26:17.441Z,54.74
2023-08-11T15:28:44.354Z,53.69
2023-08-11T15:31:11.274Z,53.77
2023-08-11T15:34:01.204Z,53.99
2023-08-11T15:36:28.130Z,54.16
2023-08-11T15:38:54.974Z,54.67
2023-08-11T15:41:21.833Z,55.10
2023-08-11T15:43:48.783Z,54.83
2023-08-11T15:46:15.643Z,54.46
2023-08-11T15:48:42.604Z,54.85
2023-08-11T15:51:09.469Z,54.83
2023-08-11T15:53:36.352Z,54.50
2023-08-11T15:56:03.229Z,54.73
2023-08-11T15:58:30.353Z,54.96
2023-08-11T16:00:57.359Z,53.82
2023-08-11T16:03:24.349Z,54.16
2023-08-11T16:05:51.341Z,54.17
2023-08-11T16:08:18.227Z,54.34
2023-08-11T16:10:45.102Z,54.38
2023-08-11T16:13:12.000Z,54.97
2023-08-11T16:15:38.838Z,55.32
2023-08-11T16:18:05.682Z,54.61
2023-08-11T16:20:32.532Z,55.39
2023-08-11T16:22:59.421Z,55.06
2023-08-11T16:25:26.308Z,54.74
2023-08-11T16:27:53.240Z,54.44
2023-08-11T16:30:20.118Z,54.30
2023-08-11T16:32:47.048Z,54.37
2023-08-11T16:35:13.925Z,54.25
2023-08-11T16:37:40.766Z,54.77
2023-08-11T16:40:07.609Z,54.01
2023-08-11T16:42:34.474Z,54.20
2023-08-11T16:45:01.428Z,54.39
2023-08-11T16:47:31.277Z,53.64
2023-08-11T16:49:58.129Z,53.60
2023-08-11T16:52:24.977Z,55.13
2023-08-11T16:54:51.894Z,55.00
2023-08-11T16:57:18.738Z,54.76
2023-08-11T16:59:45.618Z,53.73
2023-08-11T17:02:12.654Z,53.64
2023-08-11T17:04:39.806Z,53.91
2023-08-11T17:07:06.670Z,53.12
2023-08-11T17:09:33.585Z,53.49
2023-08-11T17:12:00.432Z,53.15
2023-08-11T17:14:27.298Z,53.00
2023-08-11T17:16:54.267Z,53.69
2023-08-11T17:19:21.148Z,52.49
2023-08-11T17:21:47.957Z,52.39
2023-08-11T17:24:14.815Z,53.12
2023-08-11T17:26:41.633Z,53.51
2023-08-11T17:29:08.540Z,53.99
2023-08-11T17:31:35.602Z,54.22
2023-08-11T17:34:02.597Z,53.64
2023-08-11T17:36:29.454Z,53.70
2023-08-11T17:38:56.286Z,53.57
2023-08-11T17:41:23.103Z,53.55
2023-08-11T17:43:49.910Z,53.29
2023-08-11T17:46:16.878Z,53.32
2023-08-11T17:48:43.727Z,53.11
2023-08-11T17:51:10.934Z,52.98
2023-08-11T17:53:37.773Z,52.80
2023-08-11T17:56:04.629Z,52.62
2023-08-11T17:58:31.446Z,52.69
2023-08-11T18:00:58.320Z,52.80
2023-08-11T18:03:25.205Z,53.01
2023-08-11T18:05:55.120Z,52.53
2023-08-11T18:08:21.986Z,53.11
2023-08-11T18:10:48.816Z,52.80
2023-08-11T18:13:15.628Z,52.57
2023-08-11T18:15:42.477Z,52.84
2023-08-11T18:18:09.381Z,53.39
2023-08-11T18:20:36.292Z,53.08
2023-08-11T18:23:03.458Z,52.47
2023-08-11T18:25:30.373Z,52.32
2023-08-11T18:27:57.302Z,52.95
2023-08-11T18:30:24.232Z,52.24
2023-08-11T18:32:51.086Z,52.27
2023-08-11T18:35:17.966Z,52.53
2023-08-11T18:37:44.812Z,52.52
2023-08-11T18:40:11.635Z,52.69
2023-08-11T18:42:38.517Z,52.56
2023-08-11T18:45:06.459Z,52.55
2023-08-11T18:47:33.460Z,52.18
2023-08-11T18:50:00.286Z,52.54
2023-08-11T18:52:27.128Z,52.72
2023-08-11T18:54:53.986Z,52.77
2023-08-11T18:57:20.828Z,52.37
2023-08-11T18:59:47.723Z,52.19
2023-08-11T19:02:14.788Z,52.32
2023-08-11T19:04:41.868Z,51.97
2023-08-11T19:07:08.685Z,52.06
2023-08-11T19:09:35.588Z,52.07
2023-08-11T19:12:02.384Z,52.56
2023-08-11T19:14:29.238Z,52.06
2023-08-11T19:16:56.020Z,52.40
2023-08-11T19:19:22.871Z,52.32
2023-08-11T19:21:49.657Z,52.44
2023-08-11T19:24:16.496Z,52.22
2023-08-11T19:26:43.360Z,52.98
2023-08-11T19:29:10.294Z,52.72
2023-08-11T19:31:37.195Z,52.85
2023-08-11T19:34:04.065Z,52.44
2023-08-11T19:36:30.866Z,52.56
2023-08-11T19:38:57.721Z,52.73
2023-08-11T19:41:24.878Z,52.98
2023-08-11T19:43:52.001Z,52.77
2023-08-11T19:46:18.979Z,53.38
2023-08-11T19:48:45.912Z,52.71
2023-08-11T19:51:12.765Z,52.83
2023-08-11T19:53:39.718Z,53.36
2023-08-11T19:56:06.630Z,53.14
2023-08-11T19:58:33.555Z,53.46
2023-08-11T20:01:00.413Z,53.85
2023-08-11T20:03:27.237Z,54.42
2023-08-11T20:05:54.072Z,53.42
2023-08-11T20:08:20.938Z,54.02
2023-08-11T20:10:47.733Z,54.59
2023-08-11T20:13:14.538Z,54.63
2023-08-11T20:15:41.441Z,53.82
2023-08-11T20:18:08.356Z,54.44
2023-08-11T20:20:35.355Z,54.76
2023-08-11T20:23:02.240Z,54.89
2023-08-11T20:25:29.091Z,55.02
2023-08-11T20:27:55.990Z,54.86
2023-08-11T20:30:22.843Z,55.33
2023-08-11T20:32:49.754Z,56.30
2023-08-11T20:35:16.641Z,56.20
2023-08-11T20:37:43.471Z,56.84
2023-08-11T20:40:10.360Z,56.60
2023-08-11T20:42:37.208Z,55.64
2023-08-11T20:45:04.036Z,56.29
2023-08-11T20:47:31.012Z,57.03
2023-08-11T20:49:57.949Z,57.27
2023-08-11T20:52:24.799Z,58.45
2023-08-11T20:54:51.643Z,58.13
2023-08-11T20:57:18.580Z,59.20
2023-08-11T20:59:45.391Z,58.82
2023-08-11T21:02:12.354Z,58.99
2023-08-11T21:04:39.208Z,58.84
2023-08-11T21:07:06.109Z,58.60
2023-08-11T21:09:33.001Z,58.98
2023-08-11T21:11:59.903Z,58.99
2023-08-11T21:14:26.758Z,58.49
2023-08-11T21:16:53.633Z,58.20
2023-08-11T21:19:20.497Z,57.97
2023-08-11T21:21:47.305Z,59.30
2023-08-11T21:24:14.176Z,58.95
2023-08-11T21:26:41.097Z,60.21
2023-08-11T21:29:07.908Z,59.16
2023-08-11T21:31:34.937Z,58.26
2023-08-11T21:34:01.861Z,58.86
2023-08-11T21:36:28.711Z,59.51
2023-08-11T21:38:55.585Z,58.50
2023-08-11T21:41:22.446Z,58.88
2023-08-11T21:43:49.298Z,57.18
2023-08-11T21:46:16.169Z,56.77
2023-08-11T21:48:43.126Z,56.76
2023-08-11T21:51:10.021Z,56.19
2023-08-11T21:53:36.918Z,58.06
2023-08-11T21:56:03.776Z,58.01
2023-08-11T21:58:30.700Z,59.08
2023-08-11T22:00:57.731Z,58.17
2023-08-11T22:03:24.626Z,58.05
2023-08-11T22:05:51.508Z,58.68
2023-08-11T22:08:18.338Z,58.38
2023-08-11T22:10:46.283Z,59.80
2023-08-11T22:13:13.233Z,59.57
2023-08-11T22:15:40.145Z,59.16
2023-08-11T22:18:07.018Z,58.84
2023-08-11T22:20:34.002Z,58.94
2023-08-11T22:23:00.951Z,58.25
2023-08-11T22:25:27.849Z,58.68
2023-08-11T22:27:54.706Z,58.33
2023-08-11T22:30:21.508Z,58.36
2023-08-11T22:32:48.333Z,57.20
2023-08-11T22:35:15.285Z,58.26
2023-08-11T22:37:42.175Z,57.62
2023-08-11T22:40:09.024Z,57.40
2023-08-11T22:42:36.003Z,57.95
2023-08-11T22:45:02.876Z,57.19
2023-08-11T22:47:29.830Z,57.47
2023-08-11T22:49:56.843Z,58.15
2023-08-11T22:52:23.712Z,58.57
2023-08-11T22:54:50.625Z,58.15
2023-08-11T22:57:17.472Z,59.49
2023-08-11T22:59:44.415Z,58.82
2023-08-11T23:02:11.282Z,57.84
2023-08-11T23:04:38.200Z,58.00
2023-08-11T23:07:05.076Z,57.27
2023-08-11T23:09:31.873Z,56.97
2023-08-11T23:11:58.667Z,58.45
2023-08-11T23:14:25.505Z,59.26
2023-08-11T23:16:52.359Z,58.80
2023-08-11T23:19:19.276Z,59.25
2023-08-11T23:21:46.133Z,59.90
2023-08-11T23:24:12.965Z,59.33
2023-08-11T23:26:39.896Z,57.97
2023-08-11T23:29:06.729Z,59.12
2023-08-11T23:31:33.665Z,59.33
2023-08-11T23:34:00.508Z,59.73
2023-08-11T23:36:27.382Z,59.37
2023-08-11T23:38:54.196Z,58.42
2023-08-11T23:41:21.070Z,59.30
2023-08-11T23:43:47.948Z,58.49
2023-08-11T23:46:14.981Z,59.55
2023-08-11T23:48:45.134Z,60.24
2023-08-11T23:51:12.032Z,60.14
2023-08-11T23:53:38.917Z,59.97
2023-08-11T23:56:05.835Z,59.34
2023-08-11T23:58:32.741Z,59.40
